sensor_id;sensor_type;location;lat;lon;timestamp;pressure;altitude;pressure_sealevel;temperature;humidity
25238;BME280;13185;50.872;5.306;2022-10-26T00:02:16;100983.22;;;11.52;100.00
25238;BME280;13185;50.872;5.306;2022-10-26T00:04:42;100983.22;;;11.52;100.00
25238;BME280;13185;50.872;5.306;2022-10-26T00:07:07;100989.47;;;11.53;100.00
25238;BME280;13185;50.872;5.306;2022-10-26T00:09:33;100982.25;;;11.53;100.00
25238;BME280;13185;50.872;5.306;2022-10-26T00:11:58;100977.84;;;11.52;100.00
25238;BME280;13185;50.872;5.306;2022-10-26T00:14:24;100972.47;;;11.52;100.00
25238;BME280;13185;50.872;5.306;2022-10-26T00:16:50;100971.72;;;11.50;100.00
25238;BME280;13185;50.872;5.306;2022-10-26T00:19:15;100975.38;;;11.49;100.00
25238;BME280;13185;50.872;5.306;2022-10-26T00:21:41;100975.28;;;11.51;100.00
25238;BME280;13185;50.872;5.306;2022-10-26T00:24:06;100965.50;;;11.50;100.00
25238;BME280;13185;50.872;5.306;2022-10-26T00:26:32;100969.91;;;11.51;100.00
25238;BME280;13185;50.872;5.306;2022-10-26T00:28:58;100969.16;;;11.49;100.00
25238;BME280;13185;50.872;5.306;2022-10-26T00:31:23;100960.22;;;11.48;100.00
25238;BME280;13185;50.872;5.306;2022-10-26T00:33:53;100961.09;;;11.49;100.00
25238;BME280;13185;50.872;5.306;2022-10-26T00:36:19;100956.69;;;11.48;100.00
25238;BME280;13185;50.872;5.306;2022-10-26T00:38:52;100957.66;;;11.47;100.00
25238;BME280;13185;50.872;5.306;2022-10-26T00:41:21;100950.34;;;11.49;100.00
25238;BME280;13185;50.872;5.306;2022-10-26T00:43:47;100948.53;;;11.49;100.00
25238;BME280;13185;50.872;5.306;2022-10-26T00:46:39;100945.72;;;11.51;100.00
25238;BME280;13185;50.872;5.306;2022-10-26T00:49:11;100953.56;;;11.54;100.00
25238;BME280;13185;50.872;5.306;2022-10-26T00:51:51;100953.47;;;11.55;100.00
25238;BME280;13185;50.872;5.306;2022-10-26T00:54:18;100956.94;;;11.57;100.00
25238;BME280;13185;50.872;5.306;2022-10-26T00:56:48;100953.16;;;11.60;100.00
25238;BME280;13185;50.872;5.306;2022-10-26T00:59:15;100953.91;;;11.62;100.00
25238;BME280;13185;50.872;5.306;2022-10-26T01:01:43;100941.34;;;11.63;100.00
25238;BME280;13185;50.872;5.306;2022-10-26T01:04:11;100941.34;;;11.63;100.00
25238;BME280;13185;50.872;5.306;2022-10-26T01:06:38;100935.00;;;11.64;100.00
25238;BME280;13185;50.872;5.306;2022-10-26T01:09:05;100926.72;;;11.67;100.00
25238;BME280;13185;50.872;5.306;2022-10-26T01:11:31;100931.91;;;11.70;100.00
25238;BME280;13185;50.872;5.306;2022-10-26T01:13:58;100929.13;;;11.71;100.00
25238;BME280;13185;50.872;5.306;2022-10-26T01:21:51;100918.16;;;11.74;100.00
25238;BME280;13185;50.872;5.306;2022-10-26T01:36:10;100906.25;;;11.78;100.00
25238;BME280;13185;50.872;5.306;2022-10-26T01:41:14;100903.56;;;11.78;100.00
25238;BME280;13185;50.872;5.306;2022-10-26T01:43:58;100903.56;;;11.78;100.00
25238;BME280;13185;50.872;5.306;2022-10-26T01:46:27;100898.19;;;11.78;100.00
25238;BME280;13185;50.872;5.306;2022-10-26T01:48:58;100892.81;;;11.78;100.00
25238;BME280;13185;50.872;5.306;2022-10-26T01:51:27;100888.31;;;11.79;100.00
25238;BME280;13185;50.872;5.306;2022-10-26T01:53:53;100890.91;;;11.80;100.00
25238;BME280;13185;50.872;5.306;2022-10-26T01:56:24;100883.81;;;11.79;100.00
25238;BME280;13185;50.872;5.306;2022-10-26T02:09:39;100874.44;;;11.85;100.00
25238;BME280;13185;50.872;5.306;2022-10-26T02:15:23;100859.06;;;11.87;100.00
25238;BME280;13185;50.872;5.306;2022-10-26T02:18:22;100865.31;;;11.88;100.00
25238;BME280;13185;50.872;5.306;2022-10-26T02:20:54;100857.16;;;11.89;100.00
25238;BME280;13185;50.872;5.306;2022-10-26T02:23:23;100859.63;;;11.92;100.00
25238;BME280;13185;50.872;5.306;2022-10-26T02:25:54;100867.69;;;11.92;100.00
25238;BME280;13185;50.872;5.306;2022-10-26T02:28:28;100869.41;;;11.93;100.00
25238;BME280;13185;50.872;5.306;2022-10-26T02:30:57;100869.28;;;11.95;100.00
25238;BME280;13185;50.872;5.306;2022-10-26T02:33:26;100865.63;;;11.96;100.00
25238;BME280;13185;50.872;5.306;2022-10-26T02:35:56;100854.78;;;11.97;100.00
25238;BME280;13185;50.872;5.306;2022-10-26T02:38:23;100869.06;;;11.98;100.00
25238;BME280;13185;50.872;5.306;2022-10-26T02:40:50;100860.94;;;11.99;100.00
25238;BME280;13185;50.872;5.306;2022-10-26T02:43:17;100850.06;;;12.01;100.00
25238;BME280;13185;50.872;5.306;2022-10-26T02:45:52;100858.13;;;12.01;100.00
25238;BME280;13185;50.872;5.306;2022-10-26T02:48:21;100850.91;;;12.01;100.00
25238;BME280;13185;50.872;5.306;2022-10-26T02:50:58;100848.22;;;12.01;100.00
25238;BME280;13185;50.872;5.306;2022-10-26T02:53:40;100849.22;;;12.00;100.00
25238;BME280;13185;50.872;5.306;2022-10-26T02:56:20;100855.44;;;12.01;100.00
25238;BME280;13185;50.872;5.306;2022-10-26T02:58:51;100849.22;;;12.00;100.00
25238;BME280;13185;50.872;5.306;2022-10-26T03:01:19;100851.91;;;12.00;100.00
25238;BME280;13185;50.872;5.306;2022-10-26T03:03:45;100852.63;;;12.02;100.00
25238;BME280;13185;50.872;5.306;2022-10-26T03:06:10;100848.13;;;12.03;100.00
25238;BME280;13185;50.872;5.306;2022-10-26T03:08:36;100848.13;;;12.03;100.00
25238;BME280;13185;50.872;5.306;2022-10-26T03:11:01;100846.41;;;12.02;100.00
25238;BME280;13185;50.872;5.306;2022-10-26T03:13:27;100840.28;;;12.00;100.00
25238;BME280;13185;50.872;5.306;2022-10-26T03:15:55;100837.59;;;12.00;100.00
25238;BME280;13185;50.872;5.306;2022-10-26T03:18:21;100834.13;;;11.98;100.00
25238;BME280;13185;50.872;5.306;2022-10-26T03:20:47;100833.28;;;11.97;100.00
25238;BME280;13185;50.872;5.306;2022-10-26T03:23:12;100833.28;;;11.97;100.00
25238;BME280;13185;50.872;5.306;2022-10-26T03:25:38;100833.19;;;11.99;100.00
25238;BME280;13185;50.872;5.306;2022-10-26T03:28:04;100833.09;;;12.00;100.00
25238;BME280;13185;50.872;5.306;2022-10-26T03:30:30;100837.38;;;12.03;100.00
25238;BME280;13185;50.872;5.306;2022-10-26T03:32:56;100844.22;;;12.07;100.00
25238;BME280;13185;50.872;5.306;2022-10-26T03:35:22;100835.97;;;12.10;100.00
25238;BME280;13185;50.872;5.306;2022-10-26T03:37:47;100841.13;;;12.13;100.00
25238;BME280;13185;50.872;5.306;2022-10-26T03:40:13;100839.91;;;12.17;100.00
25238;BME280;13185;50.872;5.306;2022-10-26T03:42:39;100837.97;;;12.19;100.00
25238;BME280;13185;50.872;5.306;2022-10-26T03:45:05;100847.56;;;12.23;100.00
25238;BME280;13185;50.872;5.306;2022-10-26T03:47:31;100841.94;;;12.26;100.00
25238;BME280;13185;50.872;5.306;2022-10-26T03:49:57;100850.75;;;12.28;100.00
25238;BME280;13185;50.872;5.306;2022-10-26T03:52:22;100849.72;;;12.31;100.00
25238;BME280;13185;50.872;5.306;2022-10-26T03:54:49;100851.41;;;12.32;100.00
25238;BME280;13185;50.872;5.306;2022-10-26T03:57:15;100855.72;;;12.34;100.00
25238;BME280;13185;50.872;5.306;2022-10-26T03:59:40;100861.72;;;12.38;100.00
25238;BME280;13185;50.872;5.306;2022-10-26T04:02:06;100854.38;;;12.40;100.00
25238;BME280;13185;50.872;5.306;2022-10-26T04:04:31;100855.03;;;12.43;100.00
25238;BME280;13185;50.872;5.306;2022-10-26T04:06:57;100853.97;;;12.46;100.00
25238;BME280;13185;50.872;5.306;2022-10-26T04:09:22;100851.03;;;12.49;100.00
25238;BME280;13185;50.872;5.306;2022-10-26T04:11:48;100849.97;;;12.52;100.00
25238;BME280;13185;50.872;5.306;2022-10-26T04:14:13;100856.84;;;12.56;100.00
25238;BME280;13185;50.872;5.306;2022-10-26T04:16:39;100855.75;;;12.58;100.00
25238;BME280;13185;50.872;5.306;2022-10-26T04:19:04;100864.34;;;12.63;100.00
25238;BME280;13185;50.872;5.306;2022-10-26T04:21:30;100852.50;;;12.66;100.00
25238;BME280;13185;50.872;5.306;2022-10-26T04:23:57;100855.81;;;12.69;100.00
25238;BME280;13185;50.872;5.306;2022-10-26T04:26:23;100853.00;;;12.71;100.00
25238;BME280;13185;50.872;5.306;2022-10-26T04:28:48;100859.03;;;12.75;100.00
25238;BME280;13185;50.872;5.306;2022-10-26T04:31:14;100857.59;;;12.82;100.00
25238;BME280;13185;50.872;5.306;2022-10-26T04:33:39;100852.50;;;12.90;100.00
25238;BME280;13185;50.872;5.306;2022-10-26T04:36:05;100865.41;;;12.97;100.00
25238;BME280;13185;50.872;5.306;2022-10-26T04:38:30;100872.06;;;13.05;100.00
25238;BME280;13185;50.872;5.306;2022-10-26T04:40:56;100875.00;;;13.13;100.00
25238;BME280;13185;50.872;5.306;2022-10-26T04:43:21;100877.28;;;13.19;100.00
25238;BME280;13185;50.872;5.306;2022-10-26T04:45:46;100887.72;;;13.23;100.00
25238;BME280;13185;50.872;5.306;2022-10-26T04:48:12;100888.34;;;13.27;100.00
25238;BME280;13185;50.872;5.306;2022-10-26T04:50:39;100887.78;;;13.35;100.00
25238;BME280;13185;50.872;5.306;2022-10-26T04:53:06;100886.31;;;13.42;100.00
25238;BME280;13185;50.872;5.306;2022-10-26T04:55:32;100884.63;;;13.52;100.00
25238;BME280;13185;50.872;5.306;2022-10-26T04:57:58;100881.47;;;13.58;100.00
25238;BME280;13185;50.872;5.306;2022-10-26T05:00:24;100881.00;;;13.64;100.00
25238;BME280;13185;50.872;5.306;2022-10-26T05:02:49;100878.81;;;13.69;100.00
25238;BME280;13185;50.872;5.306;2022-10-26T05:05:15;100869.63;;;13.72;100.00
25238;BME280;13185;50.872;5.306;2022-10-26T05:07:41;100876.72;;;13.73;100.00
25238;BME280;13185;50.872;5.306;2022-10-26T05:10:07;100867.06;;;13.70;100.00
25238;BME280;13185;50.872;5.306;2022-10-26T05:12:32;100870.47;;;13.72;100.00
25238;BME280;13185;50.872;5.306;2022-10-26T05:14:58;100872.06;;;13.75;100.00
25238;BME280;13185;50.872;5.306;2022-10-26T05:17:24;100872.06;;;13.75;100.00
25238;BME280;13185;50.872;5.306;2022-10-26T05:19:50;100884.59;;;13.76;100.00
25238;BME280;13185;50.872;5.306;2022-10-26T05:22:20;100893.31;;;13.79;100.00
25238;BME280;13185;50.872;5.306;2022-10-26T05:24:46;100894.88;;;13.82;100.00
25238;BME280;13185;50.872;5.306;2022-10-26T05:27:11;100909.88;;;13.86;100.00
25238;BME280;13185;50.872;5.306;2022-10-26T05:29:37;100898.59;;;13.92;100.00
25238;BME280;13185;50.872;5.306;2022-10-26T05:32:02;100895.03;;;13.92;100.00
25238;BME280;13185;50.872;5.306;2022-10-26T05:34:28;100890.38;;;13.94;100.00
25238;BME280;13185;50.872;5.306;2022-10-26T05:36:53;100886.69;;;13.95;100.00
25238;BME280;13185;50.872;5.306;2022-10-26T05:39:19;100894.78;;;13.95;100.00
25238;BME280;13185;50.872;5.306;2022-10-26T05:41:45;100895.63;;;13.95;100.00
25238;BME280;13185;50.872;5.306;2022-10-26T05:44:10;100895.63;;;13.95;100.00
25238;BME280;13185;50.872;5.306;2022-10-26T05:46:36;100897.47;;;13.95;100.00
25238;BME280;13185;50.872;5.306;2022-10-26T05:49:01;100905.69;;;13.93;100.00
25238;BME280;13185;50.872;5.306;2022-10-26T05:51:26;100910.97;;;13.95;100.00
25238;BME280;13185;50.872;5.306;2022-10-26T05:53:52;100917.13;;;13.97;100.00
25238;BME280;13185;50.872;5.306;2022-10-26T05:56:26;100922.50;;;13.97;100.00
25238;BME280;13185;50.872;5.306;2022-10-26T05:58:57;100924.22;;;13.98;100.00
25238;BME280;13185;50.872;5.306;2022-10-26T06:07:07;100946.88;;;13.95;100.00
25238;BME280;13185;50.872;5.306;2022-10-26T06:09:34;100951.53;;;13.93;100.00
25238;BME280;13185;50.872;5.306;2022-10-26T06:12:00;100937.19;;;13.93;100.00
25238;BME280;13185;50.872;5.306;2022-10-26T06:14:26;100925.41;;;13.94;100.00
25238;BME280;13185;50.872;5.306;2022-10-26T06:16:55;100925.53;;;13.92;100.00
25238;BME280;13185;50.872;5.306;2022-10-26T06:25:08;100934.75;;;13.90;100.00
25238;BME280;13185;50.872;5.306;2022-10-26T06:27:51;100933.03;;;13.89;100.00
25238;BME280;13185;50.872;5.306;2022-10-26T06:30:21;100941.22;;;13.87;100.00
25238;BME280;13185;50.872;5.306;2022-10-26T06:32:48;100929.69;;;13.85;100.00
25238;BME280;13185;50.872;5.306;2022-10-26T06:38:09;100935.56;;;13.79;100.00
25238;BME280;13185;50.872;5.306;2022-10-26T06:40:38;100932.34;;;13.74;100.00
25238;BME280;13185;50.872;5.306;2022-10-26T06:43:12;100930.88;;;13.70;100.00
25238;BME280;13185;50.872;5.306;2022-10-26T06:45:40;100937.25;;;13.69;100.00
25238;BME280;13185;50.872;5.306;2022-10-26T06:48:18;100944.47;;;13.68;100.00
25238;BME280;13185;50.872;5.306;2022-10-26T06:50:52;100955.13;;;13.70;100.00
25238;BME280;13185;50.872;5.306;2022-10-26T06:53:32;100967.50;;;13.72;100.00
25238;BME280;13185;50.872;5.306;2022-10-26T06:55:59;100964.69;;;13.74;100.00
25238;BME280;13185;50.872;5.306;2022-10-26T06:58:28;100969.09;;;13.75;100.00
25238;BME280;13185;50.872;5.306;2022-10-26T07:00:55;100974.41;;;13.76;100.00
25238;BME280;13185;50.872;5.306;2022-10-26T07:03:21;100972.66;;;13.75;100.00
25238;BME280;13185;50.872;5.306;2022-10-26T07:05:47;100975.25;;;13.77;100.00
25238;BME280;13185;50.872;5.306;2022-10-26T07:08:13;100987.03;;;13.76;100.00
25238;BME280;13185;50.872;5.306;2022-10-26T07:10:38;100985.28;;;13.75;100.00
25238;BME280;13185;50.872;5.306;2022-10-26T07:13:08;100990.59;;;13.76;100.00
25238;BME280;13185;50.872;5.306;2022-10-26T07:15:35;100987.88;;;13.76;100.00
25238;BME280;13185;50.872;5.306;2022-10-26T07:18:05;100979.69;;;13.78;100.00
25238;BME280;13185;50.872;5.306;2022-10-26T07:20:35;100979.56;;;13.79;100.00
25238;BME280;13185;50.872;5.306;2022-10-26T07:23:00;100985.81;;;13.80;100.00
25238;BME280;13185;50.872;5.306;2022-10-26T07:25:26;100983.00;;;13.81;100.00
25238;BME280;13185;50.872;5.306;2022-10-26T07:27:56;100992.78;;;13.82;100.00
25238;BME280;13185;50.872;5.306;2022-10-26T07:30:21;101019.63;;;13.84;100.00
25238;BME280;13185;50.872;5.306;2022-10-26T07:32:46;101018.66;;;13.85;100.00
25238;BME280;13185;50.872;5.306;2022-10-26T07:35:12;101005.16;;;13.85;100.00
25238;BME280;13185;50.872;5.306;2022-10-26T07:37:37;101012.31;;;13.86;100.00
25238;BME280;13185;50.872;5.306;2022-10-26T07:40:04;101018.66;;;13.85;100.00
25238;BME280;13185;50.872;5.306;2022-10-26T07:42:29;101031.19;;;13.86;100.00
25238;BME280;13185;50.872;5.306;2022-10-26T07:44:55;101037.31;;;13.88;100.00
25238;BME280;13185;50.872;5.306;2022-10-26T07:47:20;101036.22;;;13.91;100.00
25238;BME280;13185;50.872;5.306;2022-10-26T07:49:46;101043.94;;;13.95;100.00
25238;BME280;13185;50.872;5.306;2022-10-26T07:52:11;101035.75;;;13.97;100.00
25238;BME280;13185;50.872;5.306;2022-10-26T07:54:36;101042.75;;;13.99;100.00
25238;BME280;13185;50.872;5.306;2022-10-26T07:57:02;101039.81;;;14.02;100.00
25238;BME280;13185;50.872;5.306;2022-10-26T07:59:27;101049.50;;;14.05;100.00
25238;BME280;13185;50.872;5.306;2022-10-26T08:01:53;101050.25;;;14.07;100.00
25238;BME280;13185;50.872;5.306;2022-10-26T08:04:19;101057.97;;;14.11;100.00
25238;BME280;13185;50.872;5.306;2022-10-26T08:06:44;101063.00;;;14.16;100.00
25238;BME280;13185;50.872;5.306;2022-10-26T08:09:09;101067.09;;;14.22;100.00
25238;BME280;13185;50.872;5.306;2022-10-26T08:11:35;101071.91;;;14.29;100.00
25238;BME280;13185;50.872;5.306;2022-10-26T08:14:01;101072.78;;;14.41;100.00
25238;BME280;13185;50.872;5.306;2022-10-26T08:16:27;101063.38;;;14.47;100.00
25238;BME280;13185;50.872;5.306;2022-10-26T08:18:53;101061.94;;;14.54;100.00
25238;BME280;13185;50.872;5.306;2022-10-26T08:21:18;101062.94;;;14.64;100.00
25238;BME280;13185;50.872;5.306;2022-10-26T08:23:44;101062.56;;;14.68;100.00
25238;BME280;13185;50.872;5.306;2022-10-26T08:26:10;101062.22;;;14.73;100.00
25238;BME280;13185;50.872;5.306;2022-10-26T08:28:38;101073.50;;;14.78;100.00
25238;BME280;13185;50.872;5.306;2022-10-26T08:31:04;101068.59;;;14.83;100.00
25238;BME280;13185;50.872;5.306;2022-10-26T08:33:30;101077.94;;;14.90;100.00
25238;BME280;13185;50.872;5.306;2022-10-26T08:35:57;101071.06;;;14.97;100.00
25238;BME280;13185;50.872;5.306;2022-10-26T08:38:23;101076.19;;;15.00;100.00
25238;BME280;13185;50.872;5.306;2022-10-26T08:40:49;101082.97;;;15.06;100.00
25238;BME280;13185;50.872;5.306;2022-10-26T08:45:51;101100.75;;;15.20;100.00
25238;BME280;13185;50.872;5.306;2022-10-26T08:48:22;101095.72;;;15.26;100.00
25238;BME280;13185;50.872;5.306;2022-10-26T08:50:53;101099.03;;;15.30;100.00
25238;BME280;13185;50.872;5.306;2022-10-26T08:56:08;101098.41;;;15.38;100.00
25238;BME280;13185;50.872;5.306;2022-10-26T08:58:39;101103.56;;;15.41;100.00
25238;BME280;13185;50.872;5.306;2022-10-26T09:01:07;101094.97;;;15.47;100.00
25238;BME280;13185;50.872;5.306;2022-10-26T09:03:33;101096.31;;;15.52;100.00
25238;BME280;13185;50.872;5.306;2022-10-26T09:06:11;101095.09;;;15.56;100.00
25238;BME280;13185;50.872;5.306;2022-10-26T09:11:39;101104.78;;;15.70;100.00
25238;BME280;13185;50.872;5.306;2022-10-26T09:14:19;101108.97;;;15.74;100.00
25238;BME280;13185;50.872;5.306;2022-10-26T09:25:22;101137.78;;;16.07;100.00
25238;BME280;13185;50.872;5.306;2022-10-26T09:27:52;101128.88;;;16.16;100.00
25238;BME280;13185;50.872;5.306;2022-10-26T09:30:21;101132.19;;;16.20;100.00
25238;BME280;13185;50.872;5.306;2022-10-26T09:32:49;101139.66;;;16.28;100.00
25238;BME280;13185;50.872;5.306;2022-10-26T09:35:23;101144.53;;;16.34;100.00
25238;BME280;13185;50.872;5.306;2022-10-26T09:37:56;101146.16;;;16.36;100.00
25238;BME280;13185;50.872;5.306;2022-10-26T09:43:19;101155.94;;;16.49;100.00
25238;BME280;13185;50.872;5.306;2022-10-26T09:45:52;101177.06;;;16.55;100.00
25238;BME280;13185;50.872;5.306;2022-10-26T09:48:26;101159.91;;;16.65;100.00
25238;BME280;13185;50.872;5.306;2022-10-26T09:50:55;101179.22;;;16.72;100.00
25238;BME280;13185;50.872;5.306;2022-10-26T09:53:22;101170.59;;;16.78;100.00
25238;BME280;13185;50.872;5.306;2022-10-26T09:55:50;101164.78;;;16.83;100.00
25238;BME280;13185;50.872;5.306;2022-10-26T09:58:24;101176.81;;;16.90;100.00
25238;BME280;13185;50.872;5.306;2022-10-26T10:00:52;101173.41;;;16.97;99.31
25238;BME280;13185;50.872;5.306;2022-10-26T10:03:29;101177.31;;;17.05;97.99
25238;BME280;13185;50.872;5.306;2022-10-26T10:06:17;101186.34;;;17.15;97.32
25238;BME280;13185;50.872;5.306;2022-10-26T10:09:03;101190.97;;;17.24;96.35
25238;BME280;13185;50.872;5.306;2022-10-26T10:11:57;101190.44;;;17.30;96.32
25238;BME280;13185;50.872;5.306;2022-10-26T10:14:28;101202.16;;;17.30;96.22
25238;BME280;13185;50.872;5.306;2022-10-26T10:17:14;101201.31;;;17.30;97.58
25238;BME280;13185;50.872;5.306;2022-10-26T10:19:43;101210.72;;;17.36;97.78
25238;BME280;13185;50.872;5.306;2022-10-26T10:24:42;101209.16;;;17.64;96.65
25238;BME280;13185;50.872;5.306;2022-10-26T10:27:17;101216.50;;;17.73;94.15
25238;BME280;13185;50.872;5.306;2022-10-26T10:29:46;101210.66;;;17.77;93.98
25238;BME280;13185;50.872;5.306;2022-10-26T10:32:19;101209.97;;;17.85;93.62
25238;BME280;13185;50.872;5.306;2022-10-26T10:34:46;101222.41;;;17.87;92.53
25238;BME280;13185;50.872;5.306;2022-10-26T10:39:47;101222.16;;;18.00;93.70
25238;BME280;13185;50.872;5.306;2022-10-26T10:42:20;101224.63;;;18.03;92.77
25238;BME280;13185;50.872;5.306;2022-10-26T10:44:50;101226.03;;;18.07;92.27
25238;BME280;13185;50.872;5.306;2022-10-26T10:47:20;101224.59;;;18.13;92.51
25238;BME280;13185;50.872;5.306;2022-10-26T10:49:58;101230.34;;;18.20;91.79
25238;BME280;13185;50.872;5.306;2022-10-26T10:52:28;101229.94;;;18.24;91.35
25238;BME280;13185;50.872;5.306;2022-10-26T10:55:07;101239.22;;;18.31;90.72
25238;BME280;13185;50.872;5.306;2022-10-26T10:58:07;101247.13;;;18.34;89.82
25238;BME280;13185;50.872;5.306;2022-10-26T11:00:36;101237.81;;;18.37;89.48
25238;BME280;13185;50.872;5.306;2022-10-26T11:13:40;101264.19;;;18.65;88.04
25238;BME280;13185;50.872;5.306;2022-10-26T11:16:23;101256.91;;;18.66;88.43
25238;BME280;13185;50.872;5.306;2022-10-26T11:19:01;101255.16;;;18.74;88.42
25238;BME280;13185;50.872;5.306;2022-10-26T11:21:30;101253.59;;;18.82;87.96
25238;BME280;13185;50.872;5.306;2022-10-26T11:24:24;101251.03;;;18.90;86.25
25238;BME280;13185;50.872;5.306;2022-10-26T11:26:58;101253.16;;;18.96;85.49
25238;BME280;13185;50.872;5.306;2022-10-26T11:43:12;101276.75;;;19.24;80.84
25238;BME280;13185;50.872;5.306;2022-10-26T11:45:56;101264.88;;;19.25;79.24
25238;BME280;13185;50.872;5.306;2022-10-26T11:48:34;101273.88;;;19.26;78.85
25238;BME280;13185;50.872;5.306;2022-10-26T11:51:02;101281.19;;;19.25;78.08
25238;BME280;13185;50.872;5.306;2022-10-26T11:53:32;101281.31;;;19.24;77.34
25238;BME280;13185;50.872;5.306;2022-10-26T11:56:01;101285.75;;;19.25;77.72
25238;BME280;13185;50.872;5.306;2022-10-26T11:58:29;101290.19;;;19.26;78.16
25238;BME280;13185;50.872;5.306;2022-10-26T12:01:02;101287.31;;;19.27;77.65
25238;BME280;13185;50.872;5.306;2022-10-26T12:03:34;101299.50;;;19.33;77.31
25238;BME280;13185;50.872;5.306;2022-10-26T12:06:01;101298.94;;;19.39;77.38
25238;BME280;13185;50.872;5.306;2022-10-26T12:08:35;101290.47;;;19.42;77.12
25238;BME280;13185;50.872;5.306;2022-10-26T12:11:20;101291.88;;;19.46;78.03
25238;BME280;13185;50.872;5.306;2022-10-26T12:14:01;101303.75;;;19.55;77.12
25238;BME280;13185;50.872;5.306;2022-10-26T12:16:46;101303.91;;;19.63;76.60
25238;BME280;13185;50.872;5.306;2022-10-26T12:22:03;101304.88;;;19.81;76.70
25238;BME280;13185;50.872;5.306;2022-10-26T12:24:30;101310.72;;;19.86;77.08
25238;BME280;13185;50.872;5.306;2022-10-26T12:27:01;101309.44;;;19.91;75.08
25238;BME280;13185;50.872;5.306;2022-10-26T12:29:33;101303.25;;;19.88;75.00
25238;BME280;13185;50.872;5.306;2022-10-26T12:32:01;101303.97;;;19.91;75.14
25238;BME280;13185;50.872;5.306;2022-10-26T12:52:56;101332.69;;;20.12;73.36
25238;BME280;13185;50.872;5.306;2022-10-26T13:00:26;101339.34;;;20.28;74.18
25238;BME280;13185;50.872;5.306;2022-10-26T13:03:17;101348.06;;;20.31;73.54
25238;BME280;13185;50.872;5.306;2022-10-26T13:08:20;101351.94;;;20.29;72.92
25238;BME280;13185;50.872;5.306;2022-10-26T13:11:33;101353.66;;;20.30;72.33
25238;BME280;13185;50.872;5.306;2022-10-26T13:13:53;101364.88;;;20.27;72.14
25238;BME280;13185;50.872;5.306;2022-10-26T13:16:20;101354.97;;;20.26;72.49
25238;BME280;13185;50.872;5.306;2022-10-26T13:18:46;101360.16;;;20.19;71.72
25238;BME280;13185;50.872;5.306;2022-10-26T13:21:16;101365.75;;;20.17;71.06
25238;BME280;13185;50.872;5.306;2022-10-26T13:23:47;101362.88;;;20.19;71.55
25238;BME280;13185;50.872;5.306;2022-10-26T13:26:27;101363.88;;;20.18;71.11
25238;BME280;13185;50.872;5.306;2022-10-26T13:28:58;101360.84;;;20.21;71.59
25238;BME280;13185;50.872;5.306;2022-10-26T13:33:57;101362.69;;;20.30;72.83
25238;BME280;13185;50.872;5.306;2022-10-26T13:36:48;101364.56;;;20.30;71.68
25238;BME280;13185;50.872;5.306;2022-10-26T13:39:18;101367.44;;;20.28;71.75
25238;BME280;13185;50.872;5.306;2022-10-26T13:41:46;101370.84;;;20.30;72.32
25238;BME280;13185;50.872;5.306;2022-10-26T13:44:22;101371.72;;;20.31;72.41
25238;BME280;13185;50.872;5.306;2022-10-26T13:46:54;101374.03;;;20.26;71.52
25238;BME280;13185;50.872;5.306;2022-10-26T13:49:27;101368.59;;;20.26;71.54
25238;BME280;13185;50.872;5.306;2022-10-26T13:51:54;101361.28;;;20.26;71.93
25238;BME280;13185;50.872;5.306;2022-10-26T13:54:38;101369.16;;;20.29;72.01
25238;BME280;13185;50.872;5.306;2022-10-26T13:57:26;101351.50;;;20.33;71.75
25238;BME280;13185;50.872;5.306;2022-10-26T13:59:56;101356.09;;;20.33;72.06
25238;BME280;13185;50.872;5.306;2022-10-26T14:02:25;101363.13;;;20.35;71.98
25238;BME280;13185;50.872;5.306;2022-10-26T14:05:02;101370.97;;;20.38;72.57
25238;BME280;13185;50.872;5.306;2022-10-26T14:07:35;101365.22;;;20.41;72.57
25238;BME280;13185;50.872;5.306;2022-10-26T14:10:02;101362.25;;;20.44;72.25
25238;BME280;13185;50.872;5.306;2022-10-26T14:12:28;101368.41;;;20.46;73.11
25238;BME280;13185;50.872;5.306;2022-10-26T14:15:00;101372.53;;;20.51;73.42
25238;BME280;13185;50.872;5.306;2022-10-26T14:17:27;101369.94;;;20.49;72.62
25238;BME280;13185;50.872;5.306;2022-10-26T14:19:52;101375.94;;;20.53;72.57
25238;BME280;13185;50.872;5.306;2022-10-26T14:22:23;101376.50;;;20.56;71.04
25238;BME280;13185;50.872;5.306;2022-10-26T14:24:54;101378.63;;;20.62;71.11
25238;BME280;13185;50.872;5.306;2022-10-26T14:27:22;101378.19;;;20.67;70.73
25238;BME280;13185;50.872;5.306;2022-10-26T14:29:50;101379.56;;;20.71;70.52
25238;BME280;13185;50.872;5.306;2022-10-26T14:32:26;101383.47;;;20.68;70.30
25238;BME280;13185;50.872;5.306;2022-10-26T14:34:53;101388.97;;;20.59;69.85
25238;BME280;13185;50.872;5.306;2022-10-26T14:39:57;101399.59;;;20.52;70.52
25238;BME280;13185;50.872;5.306;2022-10-26T14:42:38;101400.94;;;20.48;71.16
25238;BME280;13185;50.872;5.306;2022-10-26T14:45:05;101409.25;;;20.46;71.30
25238;BME280;13185;50.872;5.306;2022-10-26T14:47:48;101396.50;;;20.47;71.64
25238;BME280;13185;50.872;5.306;2022-10-26T14:50:22;101406.22;;;20.50;72.01
25238;BME280;13185;50.872;5.306;2022-10-26T14:52:50;101404.97;;;20.44;71.92
25238;BME280;13185;50.872;5.306;2022-10-26T14:55:17;101416.28;;;20.39;72.19
25238;BME280;13185;50.872;5.306;2022-10-26T14:57:44;101414.00;;;20.35;71.95
25238;BME280;13185;50.872;5.306;2022-10-26T15:02:45;101419.03;;;20.30;72.48
25238;BME280;13185;50.872;5.306;2022-10-26T15:07:43;101424.75;;;20.36;72.59
25238;BME280;13185;50.872;5.306;2022-10-26T15:10:43;101431.91;;;20.37;72.80
25238;BME280;13185;50.872;5.306;2022-10-26T15:13:30;101431.91;;;20.37;72.84